createdAt,value
2018-05-25T00:00:31.196Z,99.99
2018-05-25T00:01:31.349Z,99.99
2018-05-25T00:02:31.503Z,99.99
2018-05-25T00:03:31.660Z,99.99
2018-05-25T00:04:31.816Z,99.99
2018-05-25T00:05:31.972Z,99.99
2018-05-25T00:06:32.126Z,99.99
2018-05-25T00:07:32.284Z,99.99
2018-05-25T00:08:32.439Z,99.99
2018-05-25T00:09:32.589Z,99.99
2018-05-25T00:10:32.744Z,99.58
2018-05-25T00:11:32.900Z,99.96
2018-05-25T00:12:33.059Z,99.68
2018-05-25T00:13:33.218Z,99.58
2018-05-25T00:14:33.365Z,99.99
2018-05-25T00:15:33.518Z,99.68
2018-05-25T00:16:33.679Z,99.58
2018-05-25T00:17:33.829Z,99.87
2018-05-25T00:18:33.984Z,99.87
2018-05-25T00:19:34.140Z,99.68
2018-05-25T00:20:34.296Z,99.29
2018-05-25T00:21:34.450Z,99.58
2018-05-25T00:22:34.602Z,99.39
2018-05-25T00:23:34.759Z,99.39
2018-05-25T00:24:34.912Z,99.48
2018-05-25T00:25:35.069Z,98.81
2018-05-25T00:26:35.223Z,98.91
2018-05-25T00:27:35.381Z,98.72
2018-05-25T00:28:35.533Z,98.77
2018-05-25T00:29:35.690Z,98.72
2018-05-25T00:30:35.842Z,98.91
2018-05-25T00:31:35.998Z,99.15
2018-05-25T00:32:36.160Z,98.81
2018-05-25T00:33:36.308Z,98.81
2018-05-25T00:34:36.465Z,98.81
2018-05-25T00:35:36.620Z,98.91
2018-05-25T00:36:36.775Z,98.91
2018-05-25T00:37:36.929Z,98.91
2018-05-25T00:38:37.084Z,98.72
2018-05-25T00:39:37.244Z,98.72
2018-05-25T00:40:37.401Z,98.81
2018-05-25T00:41:37.560Z,98.72
2018-05-25T00:42:37.713Z,98.72
2018-05-25T00:43:37.867Z,98.52
2018-05-25T00:44:38.021Z,99.48
2018-05-25T00:45:38.175Z,98.72
2018-05-25T00:46:38.328Z,98.72
2018-05-25T00:47:38.484Z,98.62
2018-05-25T00:48:38.630Z,98.81
2018-05-25T00:49:38.786Z,98.52
2018-05-25T00:50:38.936Z,98.72
2018-05-25T00:51:39.103Z,98.62
2018-05-25T00:52:39.248Z,99.39
2018-05-25T00:53:39.403Z,99.68
2018-05-25T00:54:39.559Z,99.39
2018-05-25T00:55:39.714Z,99.10
2018-05-25T00:56:39.869Z,99.29
2018-05-25T00:57:40.025Z,99.48
2018-05-25T00:58:40.182Z,99.19
2018-05-25T00:59:40.337Z,99.39
2018-05-25T01:00:40.493Z,99.19
2018-05-25T01:01:40.649Z,99.01
2018-05-25T01:02:40.804Z,99.58
2018-05-25T01:03:40.960Z,99.29
2018-05-25T01:04:41.114Z,99.68
2018-05-25T01:05:41.273Z,99.68
2018-05-25T01:06:41.433Z,99.99
2018-05-25T01:07:41.582Z,99.87
2018-05-25T01:08:41.741Z,99.99
2018-05-25T01:09:41.891Z,99.99
2018-05-25T01:10:42.045Z,99.99
2018-05-25T01:11:42.201Z,99.99
2018-05-25T01:12:42.355Z,99.99
2018-05-25T01:13:42.510Z,99.99
2018-05-25T01:14:42.664Z,99.99
2018-05-25T01:15:42.822Z,99.99
2018-05-25T01:16:42.971Z,99.99
2018-05-25T01:17:43.128Z,99.99
2018-05-25T01:18:43.285Z,99.99
2018-05-25T01:19:43.436Z,99.99
2018-05-25T01:20:43.591Z,99.87
2018-05-25T01:21:43.745Z,99.99
2018-05-25T01:22:43.903Z,99.87
2018-05-25T01:23:44.057Z,99.99
2018-05-25T01:24:44.209Z,99.99
2018-05-25T01:25:44.366Z,99.99
2018-05-25T01:26:44.523Z,99.99
2018-05-25T01:27:44.677Z,99.99
2018-05-25T01:28:44.829Z,99.99
2018-05-25T01:29:44.984Z,99.99
2018-05-25T01:30:45.144Z,99.99
2018-05-25T01:31:45.294Z,99.99
2018-05-25T01:32:45.447Z,99.99
2018-05-25T01:33:45.602Z,99.99
2018-05-25T01:34:45.759Z,99.99
2018-05-25T01:35:45.912Z,99.99
2018-05-25T01:36:46.065Z,99.99
2018-05-25T01:37:46.220Z,99.99
2018-05-25T01:38:46.375Z,99.99
2018-05-25T01:39:46.530Z,99.99
2018-05-25T01:40:46.687Z,99.99
2018-05-25T01:41:46.842Z,99.99
2018-05-25T01:42:46.995Z,99.99
2018-05-25T01:43:47.152Z,99.99
2018-05-25T01:44:47.305Z,99.99
2018-05-25T01:45:47.459Z,99.99
2018-05-25T01:46:47.613Z,99.99
2018-05-25T01:47:47.768Z,99.99
2018-05-25T01:48:47.925Z,99.99
2018-05-25T01:49:48.078Z,99.99
2018-05-25T01:50:48.231Z,99.99
2018-05-25T01:51:48.389Z,99.99
2018-05-25T01:52:48.544Z,99.99
2018-05-25T01:53:48.698Z,99.99
2018-05-25T01:54:48.853Z,99.99
2018-05-25T01:55:49.008Z,99.99
2018-05-25T01:56:49.163Z,99.99
2018-05-25T01:57:49.319Z,99.99
2018-05-25T01:58:49.471Z,99.99
2018-05-25T01:59:49.625Z,99.99
2018-05-25T02:00:49.784Z,99.99
2018-05-25T02:01:49.933Z,99.99
2018-05-25T02:02:50.090Z,99.99
2018-05-25T02:03:50.243Z,99.99
2018-05-25T02:04:50.401Z,99.99
2018-05-25T02:05:50.556Z,99.99
2018-05-25T02:06:50.712Z,99.99
2018-05-25T02:07:50.866Z,99.99
2018-05-25T02:08:51.023Z,99.99
2018-05-25T02:09:51.174Z,99.99
2018-05-25T02:10:51.330Z,99.99
2018-05-25T02:11:51.483Z,99.99
2018-05-25T02:12:51.639Z,99.99
2018-05-25T02:13:51.794Z,99.99
2018-05-25T02:14:51.947Z,99.99
2018-05-25T02:15:52.112Z,99.99
2018-05-25T02:16:52.258Z,99.99
2018-05-25T02:17:52.414Z,99.99
2018-05-25T02:18:52.569Z,99.99
2018-05-25T02:19:52.724Z,99.99
2018-05-25T02:20:52.879Z,99.99
2018-05-25T02:21:53.049Z,99.99
2018-05-25T02:22:53.190Z,99.99
2018-05-25T02:23:53.344Z,99.99
2018-05-25T02:24:53.499Z,99.99
2018-05-25T02:25:53.654Z,99.99
2018-05-25T02:26:53.812Z,99.99
2018-05-25T02:27:53.965Z,99.99
2018-05-25T02:28:54.121Z,99.99
2018-05-25T02:29:54.281Z,99.99
2018-05-25T02:30:54.434Z,99.99
2018-05-25T02:31:54.590Z,99.99
2018-05-25T02:32:54.742Z,99.99
2018-05-25T02:33:54.896Z,99.99
2018-05-25T02:34:55.074Z,99.99
2018-05-25T02:35:55.209Z,99.99
2018-05-25T02:36:55.362Z,99.99
2018-05-25T02:37:55.517Z,99.99
2018-05-25T02:38:55.674Z,99.99
2018-05-25T02:39:55.833Z,99.99
2018-05-25T02:40:55.982Z,99.99
2018-05-25T02:41:56.139Z,99.99
2018-05-25T02:42:56.291Z,99.99
2018-05-25T02:43:56.451Z,99.99
2018-05-25T02:44:56.601Z,99.99
2018-05-25T02:45:56.763Z,99.99
2018-05-25T02:46:56.912Z,99.99
2018-05-25T02:47:57.069Z,99.99
2018-05-25T02:48:57.245Z,99.99
2018-05-25T02:49:57.400Z,99.99
2018-05-25T02:50:57.558Z,99.99
2018-05-25T02:51:57.710Z,99.99
2018-05-25T02:52:57.865Z,99.99
2018-05-25T02:53:58.021Z,99.99
2018-05-25T02:54:58.174Z,99.99
2018-05-25T02:55:58.332Z,99.99
2018-05-25T02:56:58.484Z,99.99
2018-05-25T02:57:58.641Z,99.99
2018-05-25T02:58:58.800Z,99.99
2018-05-25T02:59:58.954Z,99.99
2018-05-25T03:00:59.110Z,99.99
2018-05-25T03:01:59.264Z,99.99
2018-05-25T03:02:59.420Z,99.99
2018-05-25T03:03:59.574Z,99.99
2018-05-25T03:04:59.733Z,99.99
2018-05-25T03:05:59.891Z,99.99
2018-05-25T03:07:00.039Z,99.99
2018-05-25T03:08:00.196Z,99.99
2018-05-25T03:09:00.349Z,99.99
2018-05-25T03:10:00.508Z,99.99
2018-05-25T03:11:00.661Z,99.99
2018-05-25T03:12:00.819Z,99.99
2018-05-25T03:13:00.972Z,99.99
2018-05-25T03:14:01.133Z,99.99
2018-05-25T03:15:01.282Z,99.99
2018-05-25T03:16:01.438Z,99.99
2018-05-25T03:17:01.639Z,99.99
2018-05-25T03:18:01.749Z,99.99
2018-05-25T03:19:01.905Z,99.99
2018-05-25T03:20:02.057Z,99.99
2018-05-25T03:21:02.215Z,99.99
2018-05-25T03:22:02.371Z,99.99
2018-05-25T03:23:02.525Z,99.99
2018-05-25T03:24:02.682Z,99.99
2018-05-25T03:25:02.835Z,99.99
2018-05-25T03:26:02.991Z,99.99
2018-05-25T03:27:03.159Z,99.99
2018-05-25T03:28:03.323Z,99.99
2018-05-25T03:29:03.475Z,99.99
2018-05-25T03:30:03.634Z,99.99
2018-05-25T03:31:03.787Z,99.99
2018-05-25T03:32:03.941Z,99.99
2018-05-25T03:33:04.094Z,99.99
2018-05-25T03:34:04.252Z,99.99
2018-05-25T03:35:04.410Z,99.99
2018-05-25T03:36:04.564Z,99.99
2018-05-25T03:37:04.721Z,99.99
2018-05-25T03:38:04.873Z,99.99
2018-05-25T03:39:05.029Z,99.99
2018-05-25T03:40:05.184Z,99.99
2018-05-25T03:41:05.340Z,99.99
2018-05-25T03:42:05.496Z,99.99
2018-05-25T03:43:05.704Z,99.99
2018-05-25T03:44:05.805Z,99.99
2018-05-25T03:45:05.961Z,99.99
2018-05-25T03:46:06.118Z,99.99
2018-05-25T03:47:06.270Z,99.99
2018-05-25T03:48:06.426Z,99.99
2018-05-25T03:49:06.581Z,99.99
2018-05-25T03:50:06.738Z,99.99
2018-05-25T03:51:06.892Z,99.99
2018-05-25T03:52:07.047Z,99.99
2018-05-25T03:53:07.207Z,99.99
2018-05-25T03:54:07.359Z,99.99
2018-05-25T03:55:07.517Z,99.99
2018-05-25T03:56:07.669Z,99.99
2018-05-25T03:57:07.823Z,99.99
2018-05-25T03:58:07.984Z,99.99
2018-05-25T03:59:08.133Z,99.99
2018-05-25T04:00:08.286Z,99.99
2018-05-25T04:01:08.442Z,99.99
2018-05-25T04:02:08.601Z,99.99
2018-05-25T04:03:08.756Z,99.99
2018-05-25T04:04:08.913Z,99.99
2018-05-25T04:05:09.078Z,99.99
2018-05-25T04:06:09.232Z,99.99
2018-05-25T04:07:09.387Z,99.99
2018-05-25T04:08:09.546Z,99.99
2018-05-25T04:09:09.701Z,99.99
2018-05-25T04:10:09.854Z,99.99
2018-05-25T04:11:10.010Z,99.99
2018-05-25T04:12:10.164Z,99.99
2018-05-25T04:13:10.319Z,99.99
2018-05-25T04:14:10.514Z,99.99
2018-05-25T04:15:10.630Z,99.99
2018-05-25T04:16:10.783Z,99.99
2018-05-25T04:17:10.939Z,99.99
2018-05-25T04:18:11.093Z,99.99
2018-05-25T04:19:11.249Z,99.99
2018-05-25T04:20:11.401Z,99.99
2018-05-25T04:21:11.557Z,99.99
2018-05-25T04:22:11.712Z,99.99
2018-05-25T04:23:11.866Z,99.99
2018-05-25T04:24:12.027Z,99.99
2018-05-25T04:25:12.183Z,99.99
2018-05-25T04:26:12.335Z,99.99
2018-05-25T04:27:12.491Z,99.99
2018-05-25T04:28:12.645Z,99.99
2018-05-25T04:29:12.811Z,99.99
2018-05-25T04:30:12.960Z,99.99
2018-05-25T04:31:13.117Z,99.99
2018-05-25T04:32:13.269Z,99.99
2018-05-25T04:33:13.425Z,99.99
2018-05-25T04:34:13.583Z,99.99
2018-05-25T04:35:13.737Z,99.99
2018-05-25T04:36:13.892Z,99.99
2018-05-25T04:37:14.048Z,99.99
2018-05-25T04:38:14.204Z,99.99
2018-05-25T04:39:14.358Z,99.99
2018-05-25T04:40:14.513Z,99.99
2018-05-25T04:41:14.667Z,99.99
2018-05-25T04:42:14.824Z,99.99
2018-05-25T04:43:15.031Z,99.99
2018-05-25T04:44:15.134Z,99.99
2018-05-25T04:45:15.288Z,99.99
2018-05-25T04:46:15.440Z,99.99
2018-05-25T04:47:15.601Z,99.99
2018-05-25T04:48:15.750Z,99.99
2018-05-25T04:49:15.906Z,99.99
2018-05-25T04:50:16.062Z,99.99
2018-05-25T04:51:16.216Z,99.99
2018-05-25T04:52:16.374Z,99.99
2018-05-25T04:53:16.529Z,99.99
2018-05-25T04:54:16.684Z,99.99
2018-05-25T04:55:16.838Z,99.99
2018-05-25T04:56:16.997Z,99.99
2018-05-25T04:57:17.184Z,99.99
2018-05-25T04:58:17.343Z,99.99
2018-05-25T04:59:17.497Z,99.99
2018-05-25T05:00:17.653Z,99.99
2018-05-25T05:01:17.807Z,99.99
2018-05-25T05:02:17.964Z,99.99
2018-05-25T05:03:18.117Z,99.99
2018-05-25T05:04:18.277Z,99.99
2018-05-25T05:05:18.431Z,99.99
2018-05-25T05:06:18.589Z,99.99
2018-05-25T05:07:18.743Z,99.99
2018-05-25T05:08:18.897Z,99.96
2018-05-25T05:09:19.054Z,99.96
2018-05-25T05:10:19.216Z,99.99
2018-05-25T05:11:19.368Z,99.99
2018-05-25T05:12:19.523Z,99.68
2018-05-25T05:13:19.681Z,99.77
2018-05-25T05:14:19.839Z,99.99
2018-05-25T05:15:19.991Z,99.34
2018-05-25T05:16:20.148Z,99.44
2018-05-25T05:17:20.305Z,99.44
2018-05-25T05:18:20.462Z,99.53
2018-05-25T05:19:20.615Z,99.73
2018-05-25T05:20:20.774Z,99.63
2018-05-25T05:21:20.929Z,99.73
2018-05-25T05:22:21.085Z,99.91
2018-05-25T05:23:21.241Z,99.15
2018-05-25T05:24:21.396Z,99.63
2018-05-25T05:25:21.550Z,99.73
2018-05-25T05:26:21.705Z,99.53
2018-05-25T05:27:21.864Z,99.15
2018-05-25T05:28:22.022Z,98.77
2018-05-25T05:29:22.178Z,98.67
2018-05-25T05:30:22.334Z,98.77
2018-05-25T05:31:22.489Z,98.48
2018-05-25T05:32:22.645Z,98.28
2018-05-25T05:33:22.803Z,98.38
2018-05-25T05:34:22.958Z,97.95
2018-05-25T05:35:23.116Z,97.81
2018-05-25T05:36:23.270Z,97.61
2018-05-25T05:37:23.425Z,97.71
2018-05-25T05:38:23.582Z,98.28
2018-05-25T05:39:23.744Z,97.90
2018-05-25T05:40:23.899Z,97.86
2018-05-25T05:41:24.053Z,98.24
2018-05-25T05:42:24.208Z,97.95
2018-05-25T05:43:24.367Z,98.24
2018-05-25T05:44:24.523Z,97.76
2018-05-25T05:45:24.676Z,98.24
2018-05-25T05:46:24.836Z,97.76
2018-05-25T05:47:24.994Z,97.76
2018-05-25T05:48:25.150Z,97.47
2018-05-25T05:49:25.308Z,98.33
2018-05-25T05:50:25.464Z,97.66
2018-05-25T05:51:25.619Z,97.56
2018-05-25T05:52:25.775Z,97.66
2018-05-25T05:53:25.930Z,97.76
2018-05-25T05:54:26.089Z,96.70
2018-05-25T05:55:26.243Z,96.80
2018-05-25T05:56:26.400Z,96.99
2018-05-25T05:57:26.562Z,96.61
2018-05-25T05:58:26.750Z,96.70
2018-05-25T05:59:26.899Z,96.32
2018-05-25T06:00:27.060Z,96.32
2018-05-25T06:01:27.211Z,96.89
2018-05-25T06:02:27.370Z,95.84
2018-05-25T06:03:27.526Z,95.65
2018-05-25T06:04:27.755Z,95.84
2018-05-25T06:05:27.842Z,95.98
2018-05-25T06:06:27.998Z,95.70
2018-05-25T06:07:28.153Z,95.03
2018-05-25T06:08:28.313Z,95.31
2018-05-25T06:09:28.469Z,94.93
2018-05-25T06:10:28.624Z,94.93
2018-05-25T06:11:28.779Z,94.45
2018-05-25T06:12:28.940Z,93.82
2018-05-25T06:13:29.099Z,92.86
2018-05-25T06:14:29.249Z,92.86
2018-05-25T06:15:29.406Z,93.63
2018-05-25T06:16:29.562Z,92.96
2018-05-25T06:17:29.719Z,93.34
2018-05-25T06:18:29.876Z,92.67
2018-05-25T06:19:30.038Z,93.34
2018-05-25T06:20:30.193Z,93.15
2018-05-25T06:21:30.350Z,93.34
2018-05-25T06:22:30.509Z,92.57
2018-05-25T06:23:30.666Z,92.38
2018-05-25T06:24:30.822Z,91.71
2018-05-25T06:25:30.982Z,92.48
2018-05-25T06:26:31.139Z,92.43
2018-05-25T06:27:31.298Z,91.85
2018-05-25T06:28:31.457Z,91.71
2018-05-25T06:29:31.613Z,91.81
2018-05-25T06:30:31.770Z,91.61
2018-05-25T06:31:31.928Z,92.05
2018-05-25T06:32:32.089Z,91.08
2018-05-25T06:33:32.248Z,92.05
2018-05-25T06:34:32.406Z,90.99
2018-05-25T06:35:32.564Z,90.56
2018-05-25T06:36:32.725Z,91.18
2018-05-25T06:37:32.880Z,92.43
2018-05-25T06:38:33.038Z,92.48
2018-05-25T06:39:33.195Z,91.81
2018-05-25T06:40:33.353Z,91.81
2018-05-25T06:41:33.514Z,92.19
2018-05-25T06:42:33.665Z,92.29
2018-05-25T06:43:33.825Z,90.94
2018-05-25T06:44:33.980Z,91.23
2018-05-25T06:45:34.138Z,91.56
2018-05-25T06:46:34.297Z,91.37
2018-05-25T06:47:34.455Z,91.18
2018-05-25T06:48:34.612Z,91.47
2018-05-25T06:49:34.767Z,90.17
2018-05-25T06:50:34.924Z,89.74
2018-05-25T06:51:35.084Z,90.26
2018-05-25T06:52:35.243Z,89.88
2018-05-25T06:53:35.400Z,89.01
2018-05-25T06:54:35.559Z,89.40
2018-05-25T06:55:35.718Z,90.12
2018-05-25T06:56:35.875Z,89.88
2018-05-25T06:57:36.031Z,88.06
2018-05-25T06:58:36.190Z,89.21
2018-05-25T06:59:36.350Z,89.69
2018-05-25T07:00:36.508Z,89.73
2018-05-25T07:01:36.666Z,88.67
2018-05-25T07:02:36.825Z,88.67
2018-05-25T07:03:36.988Z,87.81
2018-05-25T07:04:37.143Z,89.15
2018-05-25T07:05:37.298Z,89.35
2018-05-25T07:06:37.457Z,88.29
2018-05-25T07:07:37.615Z,89.15
2018-05-25T07:08:37.777Z,89.54
2018-05-25T07:09:37.932Z,88.57
2018-05-25T07:10:38.099Z,87.66
2018-05-25T07:11:38.250Z,87.08
2018-05-25T07:12:38.409Z,87.08
2018-05-25T07:13:38.568Z,86.41
2018-05-25T07:14:38.725Z,86.99
2018-05-25T07:15:38.882Z,86.27
2018-05-25T07:16:39.042Z,86.12
2018-05-25T07:17:39.203Z,86.79
2018-05-25T07:18:39.359Z,87.33
2018-05-25T07:19:39.520Z,87.33
2018-05-25T07:20:39.677Z,89.35
2018-05-25T07:21:39.839Z,87.23
2018-05-25T07:22:39.996Z,85.93
2018-05-25T07:23:40.154Z,86.51
2018-05-25T07:24:40.315Z,85.44
2018-05-25T07:25:40.477Z,85.74
2018-05-25T07:26:40.633Z,85.35
2018-05-25T07:27:40.792Z,85.54
2018-05-25T07:28:40.956Z,86.89
2018-05-25T07:29:41.110Z,86.41
2018-05-25T07:30:41.270Z,85.83
2018-05-25T07:31:41.428Z,86.45
2018-05-25T07:32:41.586Z,85.49
2018-05-25T07:33:41.745Z,86.22
2018-05-25T07:34:41.906Z,85.87
2018-05-25T07:35:42.066Z,85.83
2018-05-25T07:36:42.224Z,84.97
2018-05-25T07:37:42.383Z,86.83
2018-05-25T07:38:42.541Z,85.97
2018-05-25T07:39:42.703Z,84.72
2018-05-25T07:40:42.856Z,84.86
2018-05-25T07:41:43.023Z,84.18
2018-05-25T07:42:43.180Z,84.18
2018-05-25T07:43:43.337Z,85.10
2018-05-25T07:44:43.505Z,84.23
2018-05-25T07:45:43.659Z,84.39
2018-05-25T07:46:43.818Z,85.10
2018-05-25T07:47:43.981Z,86.35
2018-05-25T07:48:44.135Z,87.12
2018-05-25T07:49:44.295Z,86.21
2018-05-25T07:50:44.455Z,84.95
2018-05-25T07:51:44.612Z,84.47
2018-05-25T07:52:44.774Z,83.70
2018-05-25T07:53:44.932Z,83.31
2018-05-25T07:54:45.106Z,83.08
2018-05-25T07:55:45.266Z,84.18
2018-05-25T07:56:45.424Z,83.80
2018-05-25T07:57:45.584Z,83.89
2018-05-25T07:58:45.742Z,83.61
2018-05-25T07:59:45.903Z,84.09
2018-05-25T08:00:46.063Z,83.80
2018-05-25T08:01:46.223Z,84.18
2018-05-25T08:02:46.382Z,83.80
2018-05-25T08:03:46.541Z,83.31
2018-05-25T08:04:46.701Z,83.41
2018-05-25T08:05:46.858Z,84.18
2018-05-25T08:06:47.020Z,85.20
2018-05-25T08:07:47.178Z,84.43
2018-05-25T08:08:47.340Z,84.86
2018-05-25T08:09:47.498Z,84.38
2018-05-25T08:10:47.657Z,83.36
2018-05-25T08:11:47.817Z,83.26
2018-05-25T08:12:47.977Z,82.29
2018-05-25T08:13:48.136Z,82.97
2018-05-25T08:14:48.294Z,83.20
2018-05-25T08:15:48.460Z,82.97
2018-05-25T08:16:48.613Z,82.87
2018-05-25T08:17:48.779Z,81.62
2018-05-25T08:18:48.935Z,81.33
2018-05-25T08:19:49.097Z,81.66
2018-05-25T08:20:49.254Z,81.76
2018-05-25T08:21:49.448Z,81.14
2018-05-25T08:22:49.577Z,82.68
2018-05-25T08:23:49.736Z,81.96
2018-05-25T08:24:49.895Z,82.39
2018-05-25T08:25:50.055Z,83.55
2018-05-25T08:26:50.215Z,83.45
2018-05-25T08:27:50.373Z,82.29
2018-05-25T08:28:50.537Z,82.68
2018-05-25T08:29:50.693Z,80.99
2018-05-25T08:30:50.854Z,81.18
2018-05-25T08:31:51.014Z,80.41
2018-05-25T08:32:51.175Z,81.33
2018-05-25T08:33:51.331Z,80.62
2018-05-25T08:34:51.491Z,82.16
2018-05-25T08:35:51.652Z,82.45
2018-05-25T08:36:51.814Z,83.22
2018-05-25T08:37:51.975Z,82.10
2018-05-25T08:38:52.135Z,82.45
2018-05-25T08:39:52.292Z,82.35
2018-05-25T08:40:52.451Z,82.93
2018-05-25T08:41:52.616Z,83.61
2018-05-25T08:42:52.770Z,83.07
2018-05-25T08:43:52.936Z,82.49
2018-05-25T08:44:53.094Z,81.87
2018-05-25T08:45:53.252Z,81.52
2018-05-25T08:46:53.413Z,82.26
2018-05-25T08:47:53.572Z,81.87
2018-05-25T08:48:53.734Z,83.03
2018-05-25T08:49:53.895Z,83.55
2018-05-25T08:50:54.051Z,82.87
2018-05-25T08:51:54.209Z,82.01
2018-05-25T08:52:54.369Z,81.72
2018-05-25T08:53:54.532Z,82.10
2018-05-25T08:54:54.688Z,81.91
2018-05-25T08:55:54.850Z,82.59
2018-05-25T08:56:55.008Z,80.89
2018-05-25T08:57:55.169Z,82.62
2018-05-25T08:58:55.325Z,81.43
2018-05-25T08:59:55.488Z,81.91
2018-05-25T09:00:55.644Z,82.24
2018-05-25T09:01:55.805Z,81.72
2018-05-25T09:02:55.967Z,81.24
2018-05-25T09:03:56.126Z,81.33
2018-05-25T09:04:56.283Z,81.33
2018-05-25T09:05:56.445Z,82.68
2018-05-25T09:06:56.611Z,83.16
2018-05-25T09:07:56.785Z,81.14
2018-05-25T09:08:56.922Z,81.24
2018-05-25T09:09:57.081Z,80.94
2018-05-25T09:10:57.244Z,81.04
2018-05-25T09:11:57.404Z,82.59
2018-05-25T09:12:57.562Z,81.57
2018-05-25T09:13:57.722Z,81.76
2018-05-25T09:14:57.881Z,80.31
2018-05-25T09:15:58.043Z,78.86
2018-05-25T09:16:58.199Z,79.97
2018-05-25T09:17:58.361Z,80.64
2018-05-25T09:18:58.521Z,78.52
2018-05-25T09:19:58.679Z,78.23
2018-05-25T09:20:58.843Z,78.66
2018-05-25T09:21:59.027Z,78.94
2018-05-25T09:22:59.161Z,76.68
2018-05-25T09:23:59.326Z,78.23
2018-05-25T09:24:59.480Z,77.94
2018-05-25T09:25:59.642Z,77.65
2018-05-25T09:26:59.800Z,76.72
2018-05-25T09:27:59.962Z,75.85
2018-05-25T09:29:00.122Z,74.93
2018-05-25T09:30:00.284Z,73.52
2018-05-25T09:31:00.447Z,73.26
2018-05-25T09:32:00.606Z,71.33
2018-05-25T09:33:00.770Z,71.91
2018-05-25T09:34:00.934Z,71.91
2018-05-25T09:35:01.093Z,71.68
2018-05-25T09:36:01.253Z,71.68
2018-05-25T09:37:01.418Z,72.00
2018-05-25T09:38:01.577Z,71.14
2018-05-25T09:39:01.742Z,70.75
2018-05-25T09:40:01.905Z,71.52
2018-05-25T09:41:02.066Z,71.52
2018-05-25T09:42:02.225Z,72.78
2018-05-25T09:43:02.383Z,71.97
2018-05-25T09:44:02.547Z,72.84
2018-05-25T09:45:02.708Z,72.64
2018-05-25T09:46:03.076Z,72.06
2018-05-25T09:47:03.031Z,71.30
2018-05-25T09:48:03.190Z,71.68
2018-05-25T09:49:03.356Z,72.20
2018-05-25T09:50:03.521Z,70.75
2018-05-25T09:51:03.679Z,71.39
2018-05-25T09:52:03.843Z,71.10
2018-05-25T09:53:04.003Z,71.10
2018-05-25T09:54:04.165Z,70.52
2018-05-25T09:55:04.337Z,69.74
2018-05-25T09:56:04.499Z,69.88
2018-05-25T09:57:04.646Z,69.59
2018-05-25T09:58:04.807Z,69.59
2018-05-25T09:59:04.969Z,70.56
2018-05-25T10:00:05.181Z,71.58
2018-05-25T10:01:05.292Z,71.88
2018-05-25T10:02:05.455Z,73.22
2018-05-25T10:03:05.622Z,73.03
2018-05-25T10:04:05.777Z,72.74
2018-05-25T10:05:05.942Z,72.10
2018-05-25T10:06:06.106Z,71.72
2018-05-25T10:07:06.267Z,72.06
2018-05-25T10:08:06.438Z,72.06
2018-05-25T10:09:06.595Z,73.67
2018-05-25T10:10:06.759Z,73.63
2018-05-25T10:11:06.922Z,73.44
2018-05-25T10:12:07.083Z,73.38
2018-05-25T10:13:07.245Z,72.58
2018-05-25T10:14:07.407Z,71.90
2018-05-25T10:15:07.570Z,73.93
2018-05-25T10:16:07.736Z,74.37
2018-05-25T10:17:07.894Z,74.79
2018-05-25T10:18:08.055Z,76.05
2018-05-25T10:19:08.221Z,75.24
2018-05-25T10:20:08.377Z,75.85
2018-05-25T10:21:08.541Z,75.72
2018-05-25T10:22:08.704Z,77.07
2018-05-25T10:23:08.869Z,76.59
2018-05-25T10:24:09.026Z,76.63
2018-05-25T10:25:09.190Z,76.15
2018-05-25T10:26:09.350Z,76.34
2018-05-25T10:27:09.509Z,75.51
2018-05-25T10:28:09.670Z,75.12
2018-05-25T10:29:09.832Z,74.83
2018-05-25T10:30:09.995Z,74.87
2018-05-25T10:31:10.157Z,74.19
2018-05-25T10:32:10.318Z,75.84
2018-05-25T10:33:10.480Z,74.68
2018-05-25T10:34:10.655Z,75.45
2018-05-25T10:35:10.811Z,75.79
2018-05-25T10:36:10.968Z,73.80
2018-05-25T10:37:11.124Z,74.00
2018-05-25T10:38:11.285Z,74.10
2018-05-25T10:39:11.447Z,73.16
2018-05-25T10:40:11.610Z,74.58
2018-05-25T10:41:11.818Z,72.03
2018-05-25T10:42:11.932Z,71.45
2018-05-25T10:43:12.094Z,73.38
2018-05-25T10:44:12.254Z,73.38
2018-05-25T10:45:12.419Z,72.96
2018-05-25T10:46:12.579Z,73.58
2018-05-25T10:47:12.738Z,73.77
2018-05-25T10:48:12.907Z,73.67
2018-05-25T10:49:13.060Z,73.67
2018-05-25T10:50:13.221Z,73.83
2018-05-25T10:51:13.381Z,76.09
2018-05-25T10:52:13.544Z,73.09
2018-05-25T10:53:13.703Z,73.19
2018-05-25T10:54:13.865Z,73.38
2018-05-25T10:55:14.025Z,73.42
2018-05-25T10:56:14.187Z,71.48
2018-05-25T10:57:14.348Z,71.14
2018-05-25T10:58:14.510Z,71.04
2018-05-25T10:59:14.673Z,71.14
2018-05-25T11:00:14.833Z,71.10
2018-05-25T11:01:14.991Z,71.62
2018-05-25T11:02:15.152Z,69.72
2018-05-25T11:03:15.314Z,69.92
2018-05-25T11:04:15.484Z,71.84
2018-05-25T11:05:15.637Z,68.46
2018-05-25T11:06:15.799Z,69.88
2018-05-25T11:07:15.959Z,69.68
2018-05-25T11:08:16.121Z,70.26
2018-05-25T11:09:16.284Z,70.10
2018-05-25T11:10:16.449Z,70.20
2018-05-25T11:11:16.609Z,68.95
2018-05-25T11:12:16.772Z,68.46
2018-05-25T11:13:16.933Z,68.46
2018-05-25T11:14:17.104Z,67.27
2018-05-25T11:15:17.258Z,66.50
2018-05-25T11:16:17.419Z,65.27
2018-05-25T11:17:17.582Z,66.14
2018-05-25T11:18:17.744Z,64.98
2018-05-25T11:19:17.903Z,64.69
2018-05-25T11:20:18.067Z,64.43
2018-05-25T11:21:18.230Z,63.65
2018-05-25T11:22:18.392Z,65.63
2018-05-25T11:23:18.555Z,63.88
2018-05-25T11:24:18.719Z,61.94
2018-05-25T11:25:18.885Z,62.13
2018-05-25T11:26:19.045Z,62.10
2018-05-25T11:27:19.209Z,63.30
2018-05-25T11:28:19.372Z,61.72
2018-05-25T11:29:19.536Z,62.23
2018-05-25T11:30:19.701Z,61.46
2018-05-25T11:31:19.862Z,59.42
2018-05-25T11:32:20.026Z,58.74
2018-05-25T11:33:20.188Z,58.29
2018-05-25T11:34:20.350Z,59.42
2018-05-25T11:35:20.514Z,59.33
2018-05-25T11:36:20.677Z,59.71
2018-05-25T11:37:20.840Z,60.97
2018-05-25T11:38:21.003Z,60.88
2018-05-25T11:39:21.167Z,61.00
2018-05-25T11:40:21.332Z,61.13
2018-05-25T11:41:21.493Z,59.41
2018-05-25T11:42:21.659Z,58.70
2018-05-25T11:43:21.822Z,59.61
2018-05-25T11:44:21.986Z,58.73
2018-05-25T11:45:22.149Z,59.61
2018-05-25T11:46:22.315Z,57.64
2018-05-25T11:47:22.477Z,57.86
2018-05-25T11:48:22.644Z,58.73
2018-05-25T11:49:22.807Z,56.98
2018-05-25T11:50:22.971Z,57.37
2018-05-25T11:51:23.135Z,56.11
2018-05-25T11:52:23.300Z,56.18
2018-05-25T11:53:23.467Z,57.03
2018-05-25T11:54:23.629Z,58.41
2018-05-25T11:55:23.797Z,56.90
2018-05-25T11:56:23.959Z,58.04
2018-05-25T11:57:24.113Z,60.07
2018-05-25T11:58:24.300Z,60.33
2018-05-25T11:59:24.463Z,60.04
2018-05-25T12:00:24.632Z,61.11
2018-05-25T12:01:24.792Z,61.11
2018-05-25T12:02:24.966Z,61.43
2018-05-25T12:03:25.118Z,60.55
2018-05-25T12:04:25.296Z,60.17
2018-05-25T12:05:25.444Z,59.56
2018-05-25T12:06:25.609Z,60.43
2018-05-25T12:07:25.775Z,61.66
2018-05-25T12:08:25.938Z,62.66
2018-05-25T12:09:26.103Z,63.24
2018-05-25T12:10:26.269Z,61.72
2018-05-25T12:11:26.429Z,61.43
2018-05-25T12:12:26.592Z,61.17
2018-05-25T12:13:26.755Z,60.39
2018-05-25T12:14:26.919Z,59.81
2018-05-25T12:15:27.086Z,61.07
2018-05-25T12:16:27.286Z,59.71
2018-05-25T12:17:27.411Z,60.00
2018-05-25T12:18:27.574Z,59.23
2018-05-25T12:19:27.740Z,57.61
2018-05-25T12:20:27.902Z,59.26
2018-05-25T12:21:28.066Z,58.00
2018-05-25T12:22:28.228Z,56.76
2018-05-25T12:23:28.395Z,57.18
2018-05-25T12:24:28.556Z,56.57
2018-05-25T12:25:28.723Z,55.73
2018-05-25T12:26:28.887Z,56.30
2018-05-25T12:27:29.050Z,58.90
2018-05-25T12:28:29.215Z,59.00
2018-05-25T12:29:29.380Z,57.57
2018-05-25T12:30:29.548Z,55.73
2018-05-25T12:31:29.781Z,53.37
2018-05-25T12:32:29.896Z,53.85
2018-05-25T12:33:30.062Z,54.34
2018-05-25T12:34:30.225Z,54.75
2018-05-25T12:35:30.390Z,56.01
2018-05-25T12:36:30.555Z,54.36
2018-05-25T12:37:30.717Z,54.94
2018-05-25T12:38:30.881Z,55.63
2018-05-25T12:39:31.046Z,52.64
2018-05-25T12:40:31.227Z,53.93
2018-05-25T12:41:31.378Z,53.64
2018-05-25T12:42:31.539Z,53.83
2018-05-25T12:43:31.707Z,53.16
2018-05-25T12:44:31.870Z,52.57
2018-05-25T12:45:32.033Z,52.01
2018-05-25T12:46:32.199Z,50.46
2018-05-25T12:47:32.367Z,50.75
2018-05-25T12:48:32.531Z,50.07
2018-05-25T12:49:32.695Z,50.26
2018-05-25T12:50:32.859Z,50.26
2018-05-25T12:51:33.023Z,50.65
2018-05-25T12:52:33.188Z,53.79
2018-05-25T12:53:33.356Z,51.53
2018-05-25T12:54:33.523Z,51.79